createdAt,value
2019-04-06T00:02:01.110Z,76.07
2019-04-06T00:04:30.379Z,75.91
2019-04-06T00:06:59.626Z,75.76
2019-04-06T00:09:28.926Z,76.12
2019-04-06T00:11:58.229Z,75.79
2019-04-06T00:14:27.503Z,75.60
2019-04-06T00:16:56.742Z,76.00
2019-04-06T00:19:25.998Z,75.93
2019-04-06T00:21:55.322Z,76.12
2019-04-06T00:24:24.667Z,75.91
2019-04-06T00:26:53.883Z,76.20
2019-04-06T00:29:23.312Z,76.29
2019-04-06T00:32:08.885Z,76.47
2019-04-06T00:34:38.147Z,76.62
2019-04-06T00:37:07.453Z,76.39
2019-04-06T00:39:36.679Z,76.52
2019-04-06T00:42:05.930Z,76.70
2019-04-06T00:44:35.210Z,76.95
2019-04-06T00:47:04.475Z,76.92
2019-04-06T00:49:33.746Z,77.11
2019-04-06T00:52:03.013Z,77.01
2019-04-06T00:54:32.382Z,77.31
2019-04-06T00:57:01.745Z,77.50
2019-04-06T00:59:31.018Z,77.40
2019-04-06T01:02:00.282Z,77.32
2019-04-06T01:04:29.546Z,77.26
2019-04-06T01:06:58.808Z,77.77
2019-04-06T01:09:28.078Z,77.90
2019-04-06T01:11:57.314Z,77.97
2019-04-06T01:14:26.567Z,78.13
2019-04-06T01:16:55.853Z,78.03
2019-04-06T01:19:25.113Z,77.87
2019-04-06T01:21:54.497Z,77.70
2019-04-06T01:24:23.731Z,77.58
2019-04-06T01:26:53.002Z,77.68
2019-04-06T01:29:22.238Z,78.08
2019-04-06T01:31:51.507Z,78.31
2019-04-06T01:34:20.733Z,78.62
2019-04-06T01:36:50.024Z,78.75
2019-04-06T01:39:19.291Z,79.25
2019-04-06T01:41:48.657Z,79.18
2019-04-06T01:44:17.913Z,79.12
2019-04-06T01:46:47.205Z,79.02
2019-04-06T01:49:16.460Z,78.75
2019-04-06T01:51:45.724Z,78.58
2019-04-06T01:54:14.983Z,77.90
2019-04-06T01:56:44.258Z,77.33
2019-04-06T01:59:13.481Z,77.04
2019-04-06T02:01:54.376Z,76.97
2019-04-06T02:04:23.627Z,76.62
2019-04-06T02:06:52.920Z,77.75
2019-04-06T02:09:22.145Z,78.90
2019-04-06T02:11:51.423Z,78.87
2019-04-06T02:14:20.674Z,78.16
2019-04-06T02:16:49.943Z,78.13
2019-04-06T02:19:19.288Z,79.74
2019-04-06T02:21:48.567Z,79.77
2019-04-06T02:24:17.790Z,78.87
2019-04-06T02:26:47.060Z,78.14
2019-04-06T02:29:16.289Z,77.67
2019-04-06T02:32:10.316Z,77.04
2019-04-06T02:34:58.506Z,76.46
2019-04-06T02:37:49.339Z,75.71
2019-04-06T02:40:40.463Z,75.21
2019-04-06T02:43:21.414Z,75.04
2019-04-06T02:45:50.691Z,74.75
2019-04-06T02:48:19.940Z,75.00
2019-04-06T02:50:49.701Z,74.76
2019-04-06T02:53:18.959Z,74.55
2019-04-06T02:55:48.338Z,74.43
2019-04-06T02:58:17.659Z,73.97
2019-04-06T03:00:46.938Z,73.54
2019-04-06T03:03:16.302Z,73.18
2019-04-06T03:05:45.599Z,73.08
2019-04-06T03:08:15.053Z,73.13
2019-04-06T03:10:44.336Z,73.13
2019-04-06T03:13:13.602Z,73.25
2019-04-06T03:15:43.068Z,73.10
2019-04-06T03:18:12.506Z,72.84
2019-04-06T03:20:41.914Z,72.78
2019-04-06T03:23:11.110Z,72.66
2019-04-06T03:25:40.340Z,72.24
2019-04-06T03:28:09.595Z,72.16
2019-04-06T03:30:39.113Z,72.12
2019-04-06T03:33:08.478Z,72.15
2019-04-06T03:35:37.867Z,72.18
2019-04-06T03:38:07.390Z,72.09
2019-04-06T03:40:37.633Z,72.35
2019-04-06T03:43:07.037Z,72.09
2019-04-06T03:45:36.286Z,72.04
2019-04-06T03:48:06.017Z,71.76
2019-04-06T03:50:35.268Z,71.92
2019-04-06T03:53:04.549Z,71.61
2019-04-06T03:55:33.792Z,71.69
2019-04-06T03:58:03.053Z,71.93
2019-04-06T04:00:32.274Z,71.89
2019-04-06T04:03:01.782Z,71.82
2019-04-06T04:05:31.089Z,72.20
2019-04-06T04:08:00.391Z,73.49
2019-04-06T04:10:34.767Z,74.26
2019-04-06T04:13:04.067Z,74.68
2019-04-06T04:15:33.686Z,74.93
2019-04-06T04:18:03.010Z,74.53
2019-04-06T04:20:32.243Z,74.31
2019-04-06T04:23:01.545Z,73.91
2019-04-06T04:25:30.788Z,73.58
2019-04-06T04:28:00.041Z,73.00
2019-04-06T04:30:32.960Z,71.88
2019-04-06T04:33:00.391Z,71.69
2019-04-06T04:35:29.627Z,71.15
2019-04-06T04:37:58.985Z,70.90
2019-04-06T04:40:28.228Z,70.65
2019-04-06T04:42:57.507Z,70.55
2019-04-06T04:45:26.807Z,70.28
2019-04-06T04:47:56.085Z,70.50
2019-04-06T04:50:25.330Z,70.44
2019-04-06T04:52:54.603Z,70.35
2019-04-06T04:55:23.837Z,70.59
2019-04-06T04:57:53.120Z,70.36
2019-04-06T05:00:22.341Z,72.45
2019-04-06T05:02:51.620Z,74.42
2019-04-06T05:05:20.864Z,75.45
2019-04-06T05:07:50.125Z,75.74
2019-04-06T05:10:19.399Z,76.18
2019-04-06T05:12:48.713Z,77.37
2019-04-06T05:15:24.385Z,78.36
2019-04-06T05:17:53.612Z,78.31
2019-04-06T05:20:24.007Z,78.76
2019-04-06T05:22:53.293Z,78.47
2019-04-06T05:25:22.569Z,79.38
2019-04-06T05:27:53.068Z,79.14
2019-04-06T05:30:22.674Z,78.61
2019-04-06T05:32:51.948Z,78.07
2019-04-06T05:35:21.220Z,77.23
2019-04-06T05:37:50.466Z,76.66
2019-04-06T05:40:19.794Z,76.77
2019-04-06T05:42:49.084Z,76.03
2019-04-06T05:45:18.360Z,76.08
2019-04-06T05:47:47.751Z,75.34
2019-04-06T05:50:16.943Z,75.65
2019-04-06T05:52:46.215Z,75.77
2019-04-06T05:55:15.493Z,75.27
2019-04-06T05:57:44.759Z,75.08
2019-04-06T06:00:14.548Z,74.53
2019-04-06T06:02:43.784Z,74.02
2019-04-06T06:05:13.470Z,73.42
2019-04-06T06:07:42.833Z,72.96
2019-04-06T06:10:12.329Z,73.05
2019-04-06T06:12:41.574Z,72.72
2019-04-06T06:15:11.345Z,72.64
2019-04-06T06:17:40.596Z,72.31
2019-04-06T06:20:10.393Z,72.07
2019-04-06T06:22:39.634Z,72.32
2019-04-06T06:25:09.760Z,72.71
2019-04-06T06:27:39.135Z,72.42
2019-04-06T06:30:09.222Z,72.62
2019-04-06T06:32:38.478Z,72.37
2019-04-06T06:35:08.048Z,72.47
2019-04-06T06:37:37.314Z,71.80
2019-04-06T06:40:07.068Z,71.30
2019-04-06T06:42:36.326Z,70.00
2019-04-06T06:45:06.850Z,68.58
2019-04-06T06:47:36.095Z,66.77
2019-04-06T06:50:06.141Z,65.67
2019-04-06T06:52:35.400Z,66.43
2019-04-06T06:55:04.929Z,67.18
2019-04-06T06:57:34.134Z,67.47
2019-04-06T07:00:03.674Z,68.37
2019-04-06T07:02:32.889Z,68.98
2019-04-06T07:05:02.154Z,68.09
2019-04-06T07:07:31.418Z,68.09
2019-04-06T07:10:05.760Z,67.35
2019-04-06T07:12:31.674Z,66.67
2019-04-06T07:15:01.081Z,65.60
2019-04-06T07:17:30.343Z,64.12
2019-04-06T07:19:59.592Z,63.04
2019-04-06T07:22:28.924Z,62.08
2019-04-06T07:24:58.184Z,61.33
2019-04-06T07:27:27.520Z,59.56
2019-04-06T07:29:56.759Z,56.41
2019-04-06T07:32:26.055Z,52.90
2019-04-06T07:34:55.391Z,47.96
2019-04-06T07:37:24.670Z,44.60
2019-04-06T07:39:53.925Z,43.72
2019-04-06T07:42:23.457Z,40.56
2019-04-06T07:44:52.742Z,37.20
2019-04-06T07:47:22.101Z,36.75
2019-04-06T07:49:51.370Z,37.43
2019-04-06T07:52:20.997Z,37.91
2019-04-06T07:54:50.390Z,35.75
2019-04-06T07:57:19.629Z,34.32
2019-04-06T07:59:48.941Z,37.96
2019-04-06T08:02:18.625Z,44.53
2019-04-06T08:04:48.104Z,47.48
2019-04-06T08:07:17.651Z,48.66
2019-04-06T08:09:46.854Z,49.64
2019-04-06T08:12:16.139Z,45.89
2019-04-06T08:14:45.396Z,41.54
2019-04-06T08:17:14.664Z,38.04
2019-04-06T08:19:44.101Z,35.58
2019-04-06T08:22:13.460Z,33.51
2019-04-06T08:24:42.705Z,32.75
2019-04-06T08:27:12.242Z,34.06
2019-04-06T08:29:41.795Z,30.54
2019-04-06T08:32:11.168Z,29.34
2019-04-06T08:34:40.387Z,30.30
2019-04-06T08:37:09.646Z,28.55
2019-04-06T08:39:39.112Z,28.18
2019-04-06T08:42:08.758Z,29.48
2019-04-06T08:44:37.953Z,28.89
2019-04-06T08:47:07.214Z,28.30
2019-04-06T08:49:36.461Z,28.76
2019-04-06T08:52:05.771Z,29.73
2019-04-06T08:54:34.987Z,29.07
2019-04-06T08:57:04.261Z,28.99
2019-04-06T08:59:33.570Z,30.36
2019-04-06T09:02:02.830Z,30.45
2019-04-06T09:04:32.081Z,31.94
2019-04-06T09:07:01.605Z,30.59
2019-04-06T09:09:31.000Z,29.61
2019-04-06T09:12:00.257Z,33.17
2019-04-06T09:14:29.541Z,36.75
2019-04-06T09:16:58.759Z,36.03
2019-04-06T09:19:28.065Z,35.46
2019-04-06T09:21:57.349Z,35.30
2019-04-06T09:24:26.595Z,34.13
2019-04-06T09:26:55.856Z,31.77
2019-04-06T09:29:25.131Z,29.76
2019-04-06T09:31:54.394Z,29.26
2019-04-06T09:34:23.658Z,27.38
2019-04-06T09:36:52.925Z,25.59
2019-04-06T09:39:22.158Z,24.72
2019-04-06T09:41:51.548Z,25.52
2019-04-06T09:44:42.497Z,27.27
2019-04-06T09:47:21.441Z,29.20
2019-04-06T09:50:16.926Z,27.95
2019-04-06T09:53:05.153Z,28.08
2019-04-06T09:55:43.182Z,27.72
2019-04-06T09:58:37.422Z,27.01
2019-04-06T10:01:24.535Z,27.40
2019-04-06T10:04:12.941Z,25.84
2019-04-06T10:06:59.886Z,23.78
2019-04-06T10:09:48.326Z,22.19
2019-04-06T10:12:55.051Z,21.76
2019-04-06T10:15:34.432Z,23.96
2019-04-06T10:18:22.645Z,25.50
2019-04-06T10:21:02.604Z,26.40
2019-04-06T10:23:49.510Z,28.76
2019-04-06T10:26:49.783Z,26.49
2019-04-06T10:29:30.231Z,25.72
2019-04-06T10:32:16.489Z,25.79
2019-04-06T10:35:03.301Z,26.32
2019-04-06T10:38:10.067Z,28.29
2019-04-06T10:40:47.816Z,27.71
2019-04-06T10:43:36.027Z,27.78
2019-04-06T10:46:30.417Z,27.82
2019-04-06T10:49:18.813Z,28.51
2019-04-06T10:52:00.724Z,28.32
2019-04-06T10:55:07.329Z,29.24
2019-04-06T10:57:55.532Z,28.89
2019-04-06T11:00:52.805Z,27.17
2019-04-06T11:03:34.042Z,24.48
2019-04-06T11:06:09.044Z,27.32
2019-04-06T11:09:03.220Z,29.48
2019-04-06T11:11:57.379Z,30.09
2019-04-06T11:14:36.611Z,31.25
2019-04-06T11:17:24.813Z,30.96
2019-04-06T11:20:13.016Z,31.21
2019-04-06T11:22:53.686Z,31.10
2019-04-06T11:25:40.493Z,31.05
2019-04-06T11:28:44.097Z,30.05
2019-04-06T11:31:35.384Z,30.52
2019-04-06T11:34:12.549Z,31.90
2019-04-06T11:37:03.104Z,30.94
2019-04-06T11:39:50.116Z,30.82
2019-04-06T11:42:29.656Z,31.44
2019-04-06T11:45:16.592Z,31.07
2019-04-06T11:47:52.524Z,31.79
2019-04-06T11:50:58.757Z,31.78
2019-04-06T11:53:44.641Z,33.20
2019-04-06T11:56:31.530Z,32.53
2019-04-06T11:59:38.156Z,32.90
2019-04-06T12:02:19.042Z,30.83
2019-04-06T12:04:58.184Z,29.78
2019-04-06T12:07:42.619Z,28.02
2019-04-06T12:10:25.814Z,27.99
2019-04-06T12:13:16.910Z,28.62
2019-04-06T12:16:14.484Z,29.00
2019-04-06T12:18:58.279Z,28.77
2019-04-06T12:21:55.550Z,30.08
2019-04-06T12:24:45.924Z,34.90
2019-04-06T12:27:34.096Z,36.45
2019-04-06T12:30:36.943Z,34.27
2019-04-06T12:33:07.963Z,31.93
2019-04-06T12:35:52.548Z,32.11
2019-04-06T12:38:33.411Z,33.67
2019-04-06T12:41:30.693Z,32.94
2019-04-06T12:44:13.779Z,33.36
2019-04-06T12:47:00.779Z,34.32
2019-04-06T12:49:48.215Z,34.47
2019-04-06T12:52:40.083Z,33.84
2019-04-06T12:55:15.093Z,32.79
2019-04-06T12:57:55.296Z,33.01
2019-04-06T13:00:52.136Z,32.10
2019-04-06T13:03:48.732Z,30.45
2019-04-06T13:06:55.047Z,30.93
2019-04-06T13:09:49.913Z,32.27
2019-04-06T13:12:44.096Z,32.66
2019-04-06T13:15:32.484Z,32.05
2019-04-06T13:18:20.698Z,33.99
2019-04-06T13:21:09.129Z,34.49
2019-04-06T13:23:53.109Z,35.64
2019-04-06T13:26:44.526Z,32.47
2019-04-06T13:29:47.804Z,31.95
2019-04-06T13:32:45.218Z,34.32
2019-04-06T13:35:23.358Z,34.28
2019-04-06T13:38:07.158Z,33.15
2019-04-06T13:40:54.246Z,32.58
2019-04-06T13:43:39.463Z,31.35
2019-04-06T13:46:20.320Z,30.47
2019-04-06T13:49:06.641Z,29.37
2019-04-06T13:51:53.703Z,29.05
2019-04-06T13:54:41.283Z,29.16
2019-04-06T13:57:28.115Z,29.25
2019-04-06T14:00:16.340Z,29.29
2019-04-06T14:02:53.983Z,30.74
2019-04-06T14:05:36.037Z,31.50
2019-04-06T14:08:36.383Z,31.47
2019-04-06T14:11:18.960Z,30.75
2019-04-06T14:14:06.509Z,29.88
2019-04-06T14:17:06.807Z,30.03
2019-04-06T14:19:53.648Z,30.31
2019-04-06T14:22:45.200Z,33.27
2019-04-06T14:25:40.320Z,34.57
2019-04-06T14:28:31.695Z,34.52
2019-04-06T14:31:28.259Z,34.79
2019-04-06T14:34:09.925Z,34.77
2019-04-06T14:36:50.648Z,34.98
2019-04-06T14:39:37.736Z,35.22
2019-04-06T14:42:23.231Z,35.36
2019-04-06T14:45:11.415Z,34.72
2019-04-06T14:47:52.297Z,34.55
2019-04-06T14:50:40.642Z,34.47
2019-04-06T14:53:38.000Z,33.94
2019-04-06T14:56:26.591Z,34.11
2019-04-06T14:59:17.472Z,33.33
2019-04-06T15:02:06.045Z,33.07
2019-04-06T15:04:47.129Z,33.16
2019-04-06T15:07:35.727Z,33.97
2019-04-06T15:10:25.267Z,33.52
2019-04-06T15:13:19.302Z,33.69
2019-04-06T15:16:10.027Z,32.53
2019-04-06T15:19:07.327Z,32.86
2019-04-06T15:21:54.163Z,32.27
2019-04-06T15:24:51.335Z,32.37
2019-04-06T15:27:36.771Z,32.75
2019-04-06T15:30:24.706Z,30.61
2019-04-06T15:33:27.963Z,29.84
2019-04-06T15:36:16.368Z,30.37
2019-04-06T15:39:07.583Z,31.34
2019-04-06T15:41:58.663Z,34.39
2019-04-06T15:44:55.940Z,35.51
2019-04-06T15:47:38.652Z,35.74
2019-04-06T15:50:26.405Z,36.33
2019-04-06T15:53:14.034Z,36.72
2019-04-06T15:56:00.842Z,37.33
2019-04-06T15:58:36.524Z,36.94
2019-04-06T16:01:21.055Z,36.94
2019-04-06T16:03:58.842Z,35.84
2019-04-06T16:06:38.181Z,36.05
2019-04-06T16:09:25.598Z,36.05
2019-04-06T16:12:06.976Z,36.62
2019-04-06T16:14:54.046Z,36.60
2019-04-06T16:17:42.322Z,35.81
2019-04-06T16:20:28.839Z,36.02
2019-04-06T16:23:13.895Z,36.24
2019-04-06T16:26:02.096Z,35.90
2019-04-06T16:28:41.819Z,34.32
2019-04-06T16:31:39.129Z,34.32
2019-04-06T16:34:25.422Z,34.34
2019-04-06T16:37:04.705Z,34.04
2019-04-06T16:39:52.996Z,34.94
2019-04-06T16:42:44.189Z,34.28
2019-04-06T16:45:28.828Z,33.61
2019-04-06T16:48:10.479Z,32.47
2019-04-06T16:50:57.685Z,31.81
2019-04-06T16:53:44.133Z,32.62
2019-04-06T16:56:32.343Z,32.93
2019-04-06T16:59:19.309Z,33.00
2019-04-06T17:02:22.202Z,33.43
2019-04-06T17:05:03.653Z,33.91
2019-04-06T17:07:41.969Z,35.05
2019-04-06T17:10:24.706Z,35.05
2019-04-06T17:13:13.084Z,35.31
2019-04-06T17:15:59.944Z,36.08
2019-04-06T17:18:51.076Z,36.36
2019-04-06T17:21:48.391Z,36.81
2019-04-06T17:24:35.466Z,37.33
2019-04-06T17:27:22.505Z,37.36
2019-04-06T17:30:02.032Z,38.01
2019-04-06T17:32:40.288Z,38.25
2019-04-06T17:35:34.684Z,38.44
2019-04-06T17:38:16.990Z,39.00
2019-04-06T17:41:01.747Z,39.57
2019-04-06T17:43:43.032Z,39.94
2019-04-06T17:46:34.035Z,40.19
2019-04-06T17:49:25.153Z,40.98
2019-04-06T17:52:12.104Z,41.47
2019-04-06T17:55:03.061Z,41.70
2019-04-06T17:57:50.119Z,42.15
2019-04-06T18:00:37.083Z,42.36
2019-04-06T18:03:31.401Z,42.78
2019-04-06T18:06:14.072Z,43.17
2019-04-06T18:08:59.139Z,43.39
2019-04-06T18:11:44.599Z,43.66
2019-04-06T18:14:13.832Z,43.76
2019-04-06T18:16:43.076Z,44.10
2019-04-06T18:19:12.871Z,44.47
2019-04-06T18:21:42.667Z,44.52
2019-04-06T18:24:12.579Z,44.65
2019-04-06T18:26:42.149Z,44.91
2019-04-06T18:29:11.836Z,44.93
2019-04-06T18:31:50.185Z,44.96
2019-04-06T18:34:23.817Z,45.27
2019-04-06T18:37:00.243Z,45.50
2019-04-06T18:39:30.093Z,45.58
2019-04-06T18:41:59.896Z,45.74
2019-04-06T18:44:29.810Z,45.92
2019-04-06T18:46:59.611Z,46.01
2019-04-06T18:49:29.519Z,46.09
2019-04-06T18:51:59.520Z,46.06
2019-04-06T18:54:29.122Z,46.21
2019-04-06T18:56:59.053Z,46.39
2019-04-06T18:59:28.660Z,46.41
2019-04-06T19:01:58.882Z,46.52
2019-04-06T19:04:28.629Z,46.54
2019-04-06T19:06:58.331Z,46.56
2019-04-06T19:09:28.097Z,46.74
2019-04-06T19:11:57.443Z,46.78
2019-04-06T19:14:27.020Z,46.95
2019-04-06T19:16:56.228Z,46.91
2019-04-06T19:19:26.087Z,47.07
2019-04-06T19:21:55.678Z,47.05
2019-04-06T19:24:24.950Z,47.64
2019-04-06T19:26:54.205Z,47.35
2019-04-06T19:29:23.950Z,47.71
2019-04-06T19:31:53.383Z,47.58
2019-04-06T19:34:22.647Z,47.69
2019-04-06T19:36:52.185Z,47.73
2019-04-06T19:39:21.462Z,47.86
2019-04-06T19:41:51.069Z,48.12
2019-04-06T19:44:20.591Z,48.24
2019-04-06T19:46:50.376Z,48.45
2019-04-06T19:49:19.900Z,48.68
2019-04-06T19:51:49.194Z,48.85
2019-04-06T19:54:18.805Z,48.88
2019-04-06T19:56:48.594Z,48.93
2019-04-06T19:59:18.570Z,49.13
2019-04-06T20:01:48.186Z,49.23
2019-04-06T20:04:17.499Z,49.21
2019-04-06T20:06:46.763Z,49.62
2019-04-06T20:09:16.122Z,49.61
2019-04-06T20:11:45.578Z,49.88
2019-04-06T20:14:14.950Z,50.28
2019-04-06T20:16:44.312Z,50.15
2019-04-06T20:19:14.068Z,50.14
2019-04-06T20:21:43.484Z,49.82
2019-04-06T20:24:12.848Z,49.52
2019-04-06T20:26:42.077Z,50.11
2019-04-06T20:29:11.626Z,49.17
2019-04-06T20:31:40.888Z,49.27
2019-04-06T20:34:10.773Z,50.28
2019-04-06T20:36:40.809Z,50.57
2019-04-06T20:39:10.563Z,50.83
2019-04-06T20:41:39.915Z,50.04
2019-04-06T20:44:09.193Z,49.83
2019-04-06T20:46:38.678Z,50.92
2019-04-06T20:49:08.028Z,51.37
2019-04-06T20:51:37.927Z,51.14
2019-04-06T20:54:10.631Z,51.29
2019-04-06T20:56:40.022Z,51.79
2019-04-06T20:59:09.363Z,51.51
2019-04-06T21:01:38.660Z,51.72
2019-04-06T21:04:08.234Z,51.31
2019-04-06T21:06:37.600Z,51.83
2019-04-06T21:09:12.191Z,51.42
2019-04-06T21:11:41.515Z,51.88
2019-04-06T21:14:11.124Z,52.17
2019-04-06T21:16:40.659Z,52.63
2019-04-06T21:19:10.306Z,52.55
2019-04-06T21:21:39.812Z,52.65
2019-04-06T21:24:09.080Z,53.21
2019-04-06T21:26:38.837Z,54.06
2019-04-06T21:29:08.305Z,54.11
2019-04-06T21:31:40.026Z,54.20
2019-04-06T21:34:13.434Z,54.51
2019-04-06T21:36:40.680Z,54.54
2019-04-06T21:39:10.863Z,53.49
2019-04-06T21:41:40.684Z,52.87
2019-04-06T21:44:10.101Z,53.20
2019-04-06T21:46:39.431Z,53.64
2019-04-06T21:49:08.819Z,54.48
2019-04-06T21:51:38.106Z,54.95
2019-04-06T21:54:07.867Z,55.04
2019-04-06T21:56:37.528Z,55.26
2019-04-06T21:59:06.759Z,56.19
2019-04-06T22:01:36.912Z,56.87
2019-04-06T22:04:06.543Z,57.07
2019-04-06T22:06:36.020Z,56.69
2019-04-06T22:09:11.750Z,56.83
2019-04-06T22:11:41.635Z,56.75
2019-04-06T22:14:11.211Z,56.90
2019-04-06T22:16:40.496Z,56.99
2019-04-06T22:19:09.762Z,57.21
2019-04-06T22:21:39.513Z,57.34
2019-04-06T22:24:09.476Z,57.41
2019-04-06T22:26:39.378Z,57.73
2019-04-06T22:29:09.166Z,57.50
2019-04-06T22:31:38.548Z,57.33
2019-04-06T22:34:08.095Z,57.20
2019-04-06T22:36:37.427Z,57.30
2019-04-06T22:39:09.006Z,57.48
2019-04-06T22:41:38.985Z,57.14
2019-04-06T22:44:08.577Z,56.67
2019-04-06T22:46:38.095Z,56.33
2019-04-06T22:49:07.866Z,56.46
2019-04-06T22:51:37.924Z,56.56
2019-04-06T22:54:08.012Z,56.82
2019-04-06T22:56:37.611Z,56.81
2019-04-06T22:59:07.460Z,56.92
2019-04-06T23:01:38.960Z,57.36
2019-04-06T23:04:20.402Z,57.29
2019-04-06T23:06:55.169Z,57.26
2019-04-06T23:09:24.603Z,57.27
2019-04-06T23:11:54.242Z,57.25
2019-04-06T23:14:23.519Z,57.25
2019-04-06T23:16:53.030Z,57.41
2019-04-06T23:19:22.575Z,57.19
2019-04-06T23:21:52.052Z,57.17
2019-04-06T23:24:21.612Z,57.32
2019-04-06T23:26:51.511Z,57.59
2019-04-06T23:29:21.149Z,57.69
2019-04-06T23:31:50.416Z,57.87
2019-04-06T23:34:20.332Z,57.93
2019-04-06T23:36:50.024Z,57.67
2019-04-06T23:39:19.442Z,57.41
2019-04-06T23:41:48.679Z,57.25
2019-04-06T23:44:18.454Z,57.10
2019-04-06T23:46:47.890Z,57.20
2019-04-06T23:49:17.150Z,57.19
2019-04-06T23:51:46.414Z,57.08
2019-04-06T23:54:15.993Z,57.13
2019-04-06T23:56:45.423Z,56.89
2019-04-06T23:59:14.955Z,56.83
